Accueil
METAR-TAF:

METAR-TAF

Aéroports :

St Athan, Pays de Galles

latitude: 51-24N, longitude: 003-26W, altitude: 50 m

Observation

Le bulletin a été fait il y a 1 heure et 11 minutes, à 05:50 UTC
Vent 16 kt de ouest
Température 16°C
Humidité 82%
Pression 1015 hPa
Visibilité 10 km ou plus

METAR: EGDX 230550Z AUTO 26016KT 9999 BKN032/// 16/13 Q1015

Heure: 08:01 (07:01 UTC)

Prévision

Le bulletin a été fait il y a 1 heure et 38 minutes, à 05:23 UTC
Prévision valable du 23 à 07 UTC au 23 à 15 UTC
Vent 17 kt de ouest/sud-ouest avec des rafales jusqu'à 27 kt
Visibilité 10 km ou plus
Quelques nuages à une hauteur de 1700 ft
Temporairement
du 23 à 07 UTC au 23 à 15 UTC
Nuages épars à une hauteur de 1700 ft
Probabilité 30% :
Temporairement
du 23 à 13 UTC au 23 à 15 UTC
Nuages épars à une hauteur de 1400 ft

TAF: EGDX 230523Z 2307/2315 25017G27KT 9999 FEW017 TEMPO 2307/2315 SCT017 PROB30 TEMPO 2313/2315 SCT014

Observations et prévisions météorologiques de plus de 4000 aéroports (messages METAR et TAF).

Les stations disponibles sont représentées par des disques jaunes et rouges sur la carte.

Passer la souris dessus pour voir le nom de la station.

Cliquer dessus pour voir les observations et prévisions météorologiques.

Pour changer de carte: cliquez sur les boutons verts avec une croix noire pour zoomer, sur le bouton vert avec un tiret pour effectuer un zoom arrière, ou sur les flèches vertes pour les cartes adjacentes.


METAR-TAF: